Time;durP1;ratioP1;P1;durP2;ratioP2;P2;SDS_P1;SDS_P2;PMS_P1;PMS_P2;Temp;Humidity;BMP_temperature;BMP_pressure;BME280_temperature;BME280_humidity;BME280_pressure;Samples;Min_cycle;Max_cycle;Signal;HPM_P1;HPM_P2
2020/12/30 00:01:28;;;;;;;25.30;17.88;;;4.10;96.90;;;;;;5006667;28;20118;-43
2020/12/30 00:03:54;;;;;;;27.70;17.88;;;4.00;96.80;;;;;;5006497;28;20121;-43
2020/12/30 00:06:20;;;;;;;24.00;17.10;;;4.00;96.90;;;;;;5006749;28;20439;-43
2020/12/30 00:08:49;;;;;;;24.83;16.33;;;4.00;97.00;;;;;;5007213;28;20087;-44
2020/12/30 00:11:18;;;;;;;25.95;17.30;;;3.90;97.00;;;;;;5006520;28;20022;-43
2020/12/30 00:13:43;;;;;;;25.15;16.55;;;3.90;97.10;;;;;;5007139;28;20500;-43
2020/12/30 00:16:09;;;;;;;23.65;16.38;;;3.90;97.10;;;;;;5007001;28;20107;-44
2020/12/30 00:18:34;;;;;;;27.35;18.13;;;3.90;97.10;;;;;;5006905;28;20450;-43
2020/12/30 00:21:00;;;;;;;26.23;17.67;;;3.80;97.10;;;;;;5007024;28;20672;-43
2020/12/30 00:23:25;;;;;;;23.70;16.52;;;3.80;97.10;;;;;;5006096;28;20129;-43
2020/12/30 00:25:51;;;;;;;26.63;18.52;;;3.70;97.10;;;;;;5006753;28;20101;-43
2020/12/30 00:28:18;;;;;;;26.33;18.13;;;3.70;97.00;;;;;;5006021;28;20437;-43
2020/12/30 00:30:44;;;;;;;23.63;16.33;;;3.60;97.10;;;;;;5007055;28;20028;-43
2020/12/30 00:33:10;;;;;;;29.55;20.35;;;3.60;97.10;;;;;;5006576;28;20037;-44
2020/12/30 00:35:36;;;;;;;28.17;20.38;;;3.50;97.10;;;;;;5006423;28;20022;-44
2020/12/30 00:38:01;;;;;;;31.55;20.95;;;3.50;97.10;;;;;;5006578;28;20033;-44
2020/12/30 00:40:27;;;;;;;30.80;20.27;;;3.40;97.20;;;;;;5006646;28;20752;-43
2020/12/30 00:42:52;;;;;;;31.02;21.83;;;3.40;97.20;;;;;;5006274;28;20046;-43
2020/12/30 00:45:18;;;;;;;31.25;20.38;;;3.30;97.20;;;;;;5006571;28;20111;-44
2020/12/30 00:47:43;;;;;;;29.65;19.90;;;3.30;97.20;;;;;;5006859;28;20022;-44
2020/12/30 00:50:09;;;;;;;31.88;20.30;;;3.20;97.20;;;;;;5006361;28;20738;-44
2020/12/30 00:52:35;;;;;;;30.33;20.33;;;3.20;97.20;;;;;;5006216;28;20025;-44
2020/12/30 00:55:00;;;;;;;28.85;19.55;;;3.10;97.20;;;;;;5006719;28;20100;-44
2020/12/30 00:57:26;;;;;;;32.72;21.42;;;3.10;97.20;;;;;;5005769;28;20026;-42
2020/12/30 00:59:53;;;;;;;29.13;20.13;;;3.10;97.30;;;;;;5006521;28;20018;-44
2020/12/30 01:02:18;;;;;;;33.17;20.75;;;3.00;97.30;;;;;;5006128;28;20038;-43
2020/12/30 01:04:44;;;;;;;29.83;19.98;;;3.00;97.30;;;;;;5006107;28;20505;-44
2020/12/30 01:07:11;;;;;;;30.23;19.50;;;2.90;97.30;;;;;;5006141;28;20026;-43
2020/12/30 01:09:37;;;;;;;26.42;17.90;;;2.90;97.30;;;;;;5006696;28;20065;-43
2020/12/30 01:12:04;;;;;;;23.98;17.23;;;2.90;97.30;;;;;;5006380;28;20081;-43
2020/12/30 01:14:30;;;;;;;23.35;16.27;;;2.80;97.30;;;;;;5007050;28;20025;-43
2020/12/30 01:16:56;;;;;;;22.85;15.98;;;2.80;97.30;;;;;;5010871;28;20021;-44
2020/12/30 01:19:22;;;;;;;26.58;17.50;;;2.80;97.30;;;;;;5009461;28;20033;-43
2020/12/30 01:21:48;;;;;;;23.90;15.77;;;2.70;97.30;;;;;;5010100;28;20091;-43
2020/12/30 01:24:14;;;;;;;20.17;15.30;;;2.80;97.30;;;;;;5010152;28;20477;-44
2020/12/30 01:26:41;;;;;;;23.27;17.30;;;2.70;97.30;;;;;;5009828;28;20034;-44
2020/12/30 01:29:07;;;;;;;24.52;16.73;;;2.70;97.50;;;;;;5010297;28;20107;-42
2020/12/30 01:31:34;;;;;;;23.00;16.40;;;2.70;97.30;;;;;;5009520;28;20469;-43
2020/12/30 01:34:00;;;;;;;26.50;18.15;;;2.70;97.30;;;;;;5009980;28;20030;-43
2020/12/30 01:36:26;;;;;;;25.45;15.98;;;2.60;97.30;;;;;;5009246;28;20026;-43
2020/12/30 01:38:52;;;;;;;24.83;16.10;;;2.60;97.30;;;;;;5009806;28;20459;-43
2020/12/30 01:41:18;;;;;;;24.10;16.75;;;2.60;97.40;;;;;;5009550;28;20036;-43
2020/12/30 01:44:00;;;;;;;24.67;16.80;;;2.60;97.40;;;;;;5009916;28;20425;-43
2020/12/30 01:46:34;;;;;;;22.27;16.13;;;2.50;97.40;;;;;;5009357;28;20072;-43
2020/12/30 01:49:01;;;;;;;24.33;17.50;;;2.60;97.60;;;;;;5009642;28;20022;-43
2020/12/30 01:51:28;;;;;;;26.73;17.38;;;2.60;97.70;;;;;;5009325;28;20028;-44
2020/12/30 01:53:53;;;;;;;25.17;16.30;;;2.80;97.80;;;;;;5009380;28;20481;-44
2020/12/30 01:56:21;;;;;;;29.35;18.92;;;2.80;97.70;;;;;;5009180;28;20087;-43
2020/12/30 01:58:47;;;;;;;24.50;18.17;;;2.90;97.60;;;;;;5009601;28;20073;-43
2020/12/30 02:01:12;;;;;;;25.77;17.65;;;2.90;97.50;;;;;;5009121;28;20585;-42
2020/12/30 02:03:39;;;;;;;26.30;18.10;;;2.90;97.40;;;;;;5009138;28;20413;-45
2020/12/30 02:06:04;;;;;;;27.30;18.90;;;2.90;97.30;;;;;;5009597;28;20021;-43
2020/12/30 02:08:31;;;;;;;24.33;17.15;;;2.90;97.40;;;;;;5008919;28;20461;-43
2020/12/30 02:10:56;;;;;;;23.40;16.40;;;2.90;97.40;;;;;;5009300;28;20493;-44
2020/12/30 02:13:25;;;;;;;26.75;17.90;;;2.90;97.40;;;;;;5008920;28;20057;-44
2020/12/30 02:15:50;;;;;;;22.95;16.58;;;2.90;97.40;;;;;;5009282;28;20434;-44
2020/12/30 02:18:16;;;;;;;25.20;16.40;;;2.90;97.40;;;;;;5008684;28;20116;-44
2020/12/30 02:20:41;;;;;;;27.42;18.30;;;2.90;97.40;;;;;;5008883;28;20029;-44
2020/12/30 02:23:11;;;;;;;25.50;17.60;;;2.90;97.30;;;;;;5009336;28;20030;-44
2020/12/30 02:25:37;;;;;;;26.88;17.13;;;2.80;97.30;;;;;;5008382;28;20104;-44
2020/12/30 02:28:03;;;;;;;25.90;17.50;;;2.80;97.30;;;;;;5008474;28;20777;-44
2020/12/30 02:30:28;;;;;;;29.05;19.10;;;2.70;97.20;;;;;;5008739;28;20084;-43
2020/12/30 02:32:54;;;;;;;27.92;19.40;;;2.60;97.20;;;;;;5009001;28;20153;-43
2020/12/30 02:35:25;;;;;;;31.42;19.58;;;2.60;97.20;;;;;;5007908;28;20084;-44
2020/12/30 02:37:51;;;;;;;26.55;18.08;;;2.50;97.20;;;;;;5009314;28;20026;-44
2020/12/30 02:40:17;;;;;;;26.98;18.83;;;2.50;97.30;;;;;;5008404;28;20536;-43
2020/12/30 02:42:43;;;;;;;26.08;17.63;;;2.50;97.30;;;;;;5008261;28;20049;-42
2020/12/30 02:45:09;;;;;;;33.03;21.08;;;2.40;97.30;;;;;;5008913;28;20092;-43
2020/12/30 02:47:35;;;;;;;30.63;20.17;;;2.40;97.30;;;;;;5008424;28;20089;-43
2020/12/30 02:50:02;;;;;;;28.05;20.55;;;2.30;97.30;;;;;;5008323;28;20045;-43
2020/12/30 02:52:28;;;;;;;28.08;19.00;;;2.30;97.30;;;;;;5008320;28;20030;-42
2020/12/30 02:54:53;;;;;;;29.42;19.77;;;2.30;97.40;;;;;;5008499;28;20037;-43
2020/12/30 02:57:20;;;;;;;35.22;21.60;;;2.20;97.40;;;;;;5007367;28;20029;-43
2020/12/30 02:59:46;;;;;;;31.88;21.10;;;2.20;97.40;;;;;;5008756;28;20030;-44
2020/12/30 03:02:12;;;;;;;28.95;20.02;;;2.20;97.40;;;;;;5008196;28;20026;-44
2020/12/30 03:04:37;;;;;;;25.95;18.52;;;2.20;97.50;;;;;;5008148;28;20484;-44
2020/12/30 03:07:03;;;;;;;32.45;21.48;;;2.20;97.50;;;;;;5008827;28;20026;-44
2020/12/30 03:09:29;;;;;;;30.33;20.20;;;2.20;97.50;;;;;;5007637;28;20034;-44
2020/12/30 03:11:54;;;;;;;28.83;19.83;;;2.20;97.50;;;;;;5007887;28;20061;-44
2020/12/30 03:14:20;;;;;;;28.85;19.88;;;2.20;97.60;;;;;;5007689;28;20466;-44
2020/12/30 03:16:46;;;;;;;27.58;19.13;;;2.20;97.90;;;;;;5008223;28;20120;-44
2020/12/30 03:19:12;;;;;;;28.88;18.55;;;2.30;97.70;;;;;;5007357;28;20288;-43
2020/12/30 03:21:37;;;;;;;28.30;18.77;;;2.40;97.80;;;;;;5008157;28;20033;-43
2020/12/30 03:24:03;;;;;;;30.08;18.45;;;2.40;97.70;;;;;;5007585;28;20037;-43
2020/12/30 03:26:31;;;;;;;23.00;16.40;;;2.50;97.70;;;;;;5007553;28;20855;-43
2020/12/30 03:28:58;;;;;;;26.73;17.80;;;2.50;97.60;;;;;;5008294;28;20030;-43
2020/12/30 03:31:23;;;;;;;29.10;17.48;;;2.60;97.60;;;;;;5007111;28;20029;-43
2020/12/30 03:33:49;;;;;;;25.60;17.33;;;2.60;97.60;;;;;;5007868;28;20033;-43
2020/12/30 03:36:15;;;;;;;29.13;19.05;;;2.60;97.60;;;;;;5007237;28;20030;-43
2020/12/30 03:38:40;;;;;;;30.05;19.38;;;2.60;97.50;;;;;;5007735;28;20108;-43
2020/12/30 03:41:06;;;;;;;29.73;19.15;;;2.60;97.50;;;;;;5007856;28;20389;-43
2020/12/30 03:43:31;;;;;;;28.95;20.00;;;2.70;97.40;;;;;;5007164;28;20077;-43
2020/12/30 03:45:57;;;;;;;30.30;19.83;;;2.60;97.40;;;;;;5006898;28;20048;-43
2020/12/30 03:48:22;;;;;;;32.10;21.38;;;2.60;97.40;;;;;;5007159;28;20038;-43
2020/12/30 03:50:48;;;;;;;32.40;20.52;;;2.60;97.40;;;;;;5007997;28;20099;-43
2020/12/30 03:53:13;;;;;;;29.42;20.20;;;2.60;97.40;;;;;;5006698;28;20507;-44
2020/12/30 03:55:39;;;;;;;29.13;19.15;;;2.60;97.40;;;;;;5007446;28;20022;-43
2020/12/30 03:58:07;;;;;;;29.20;19.55;;;2.70;97.70;;;;;;5008013;28;20460;-44
2020/12/30 04:00:32;;;;;;;26.77;17.35;;;2.70;97.50;;;;;;5006679;28;20026;-44
2020/12/30 04:02:58;;;;;;;24.15;17.48;;;2.70;97.50;;;;;;5007357;28;20049;-44
2020/12/30 04:05:23;;;;;;;26.20;17.85;;;2.80;97.40;;;;;;5007274;28;20164;-44
2020/12/30 04:07:49;;;;;;;25.20;17.52;;;2.80;97.40;;;;;;5006978;28;20030;-44
2020/12/30 04:10:15;;;;;;;26.73;17.92;;;2.90;97.40;;;;;;5006707;28;20038;-43
2020/12/30 04:12:40;;;;;;;24.02;17.17;;;2.90;97.40;;;;;;5007385;28;20030;-43
2020/12/30 04:15:06;;;;;;;25.02;17.70;;;3.00;97.40;;;;;;5006917;28;20036;-43
2020/12/30 04:17:31;;;;;;;26.55;17.92;;;3.00;97.30;;;;;;5006508;28;20721;-43
2020/12/30 04:19:57;;;;;;;25.38;16.95;;;3.00;97.30;;;;;;5007301;28;20029;-43
2020/12/30 04:22:22;;;;;;;26.13;17.90;;;3.00;97.20;;;;;;5006106;28;20032;-43
2020/12/30 04:24:48;;;;;;;29.40;18.27;;;3.00;97.20;;;;;;5006881;28;20050;-43
2020/12/30 04:27:13;;;;;;;29.02;19.17;;;2.90;97.20;;;;;;5006464;28;20018;-43
2020/12/30 04:29:39;;;;;;;28.35;19.13;;;3.00;97.30;;;;;;5006530;28;20179;-43
2020/12/30 04:32:04;;;;;;;27.00;18.77;;;3.00;97.30;;;;;;5006875;28;20022;-44
2020/12/30 04:34:30;;;;;;;31.85;21.48;;;3.00;97.20;;;;;;5006142;28;20099;-43
2020/12/30 04:36:55;;;;;;;29.90;20.25;;;2.90;97.20;;;;;;5007003;28;20045;-43
2020/12/30 04:39:21;;;;;;;31.77;20.50;;;2.90;97.20;;;;;;5006195;28;20041;-43
2020/12/30 04:41:48;;;;;;;30.25;19.77;;;2.90;97.20;;;;;;5006547;28;20026;-43
2020/12/30 04:44:16;;;;;;;30.83;19.58;;;2.90;97.30;;;;;;5005707;28;20411;-42
2020/12/30 04:46:43;;;;;;;25.63;17.92;;;3.00;97.40;;;;;;5006763;28;20025;-43
2020/12/30 04:49:10;;;;;;;28.55;20.30;;;3.00;97.40;;;;;;5005819;28;20120;-43
2020/12/30 04:51:38;;;;;;;32.38;20.50;;;3.10;97.60;;;;;;5006773;28;20022;-44
2020/12/30 04:54:03;;;;;;;33.22;20.88;;;3.10;97.30;;;;;;5006612;28;20104;-44
2020/12/30 04:56:56;;;;;;;29.95;20.85;;;3.10;97.20;;;;;;5005655;28;20120;-43
2020/12/30 04:59:26;;;;;;;30.15;19.45;;;3.10;97.20;;;;;;5006447;28;20446;-43
2020/12/30 05:01:59;;;;;;;27.75;17.95;;;3.10;97.20;;;;;;5006341;28;20491;-43
2020/12/30 05:04:25;;;;;;;26.45;17.83;;;3.10;97.20;;;;;;5005551;28;20421;-43
2020/12/30 05:06:52;;;;;;;26.20;18.13;;;3.10;97.20;;;;;;5006560;28;20469;-43
2020/12/30 05:09:20;;;;;;;29.73;19.00;;;3.10;97.10;;;;;;5006031;28;20045;-43
2020/12/30 05:11:45;;;;;;;26.35;18.55;;;3.10;97.10;;;;;;5006189;28;20041;-43
2020/12/30 05:14:11;;;;;;;30.77;19.70;;;3.10;97.20;;;;;;5006447;28;20026;-44
2020/12/30 05:16:36;;;;;;;29.77;19.40;;;3.10;97.20;;;;;;5005606;28;20359;-43
2020/12/30 05:19:08;;;;;;;26.92;19.60;;;3.10;97.20;;;;;;5006363;28;20125;-44
2020/12/30 05:21:33;;;;;;;28.30;19.40;;;3.10;97.20;;;;;;5006117;28;20056;-43
2020/12/30 05:23:59;;;;;;;35.95;21.15;;;3.00;97.10;;;;;;5005803;28;20037;-43
2020/12/30 05:26:24;;;;;;;26.85;19.10;;;3.00;97.20;;;;;;5005702;28;20042;-43
2020/12/30 05:28:52;;;;;;;28.05;19.25;;;3.00;97.20;;;;;;5006339;28;20036;-43
2020/12/30 05:31:17;;;;;;;26.10;17.23;;;3.00;97.30;;;;;;5005336;28;20030;-44
2020/12/30 05:33:43;;;;;;;24.20;16.15;;;3.00;97.30;;;;;;5006376;28;20117;-44
2020/12/30 05:36:10;;;;;;;23.38;15.98;;;3.10;97.30;;;;;;5006352;28;20478;-44
2020/12/30 05:38:35;;;;;;;22.35;16.02;;;3.10;97.30;;;;;;5005730;28;20038;-44
2020/12/30 05:41:01;;;;;;;24.05;14.90;;;3.10;97.30;;;;;;5006120;28;20084;-43
2020/12/30 05:43:27;;;;;;;22.88;16.17;;;3.10;97.30;;;;;;5005505;28;20042;-44
2020/12/30 05:45:54;;;;;;;24.58;17.42;;;3.20;97.30;;;;;;5005966;28;20528;-44
2020/12/30 05:48:21;;;;;;;24.77;16.90;;;3.20;97.30;;;;;;5005444;28;20544;-44
2020/12/30 05:50:55;;;;;;;25.17;16.73;;;3.30;97.20;;;;;;5005871;28;20032;-43
2020/12/30 05:53:21;;;;;;;29.90;20.05;;;3.30;97.20;;;;;;5005319;28;20061;-43
2020/12/30 05:55:50;;;;;;;25.77;17.77;;;3.30;97.20;;;;;;5005993;28;20048;-44
2020/12/30 05:58:17;;;;;;;29.98;19.15;;;3.30;97.10;;;;;;5005779;28;20032;-43
2020/12/30 06:00:43;;;;;;;25.40;16.67;;;3.30;97.10;;;;;;5005815;28;20045;-43
2020/12/30 06:03:15;;;;;;;24.30;16.52;;;3.30;97.10;;;;;;5009215;28;20043;-43
2020/12/30 06:05:41;;;;;;;28.30;17.30;;;3.30;97.20;;;;;;5009758;28;20462;-43
2020/12/30 06:08:07;;;;;;;24.73;17.48;;;3.30;97.20;;;;;;5009481;28;20041;-44
2020/12/30 06:10:33;;;;;;;29.08;17.83;;;3.30;97.20;;;;;;5008896;28;20622;-44
2020/12/30 06:13:02;;;;;;;26.23;17.70;;;3.30;97.20;;;;;;5008869;28;20465;-44
2020/12/30 06:15:32;;;;;;;26.25;18.52;;;3.40;97.20;;;;;;5008795;28;20021;-42
2020/12/30 06:17:59;;;;;;;29.35;20.52;;;3.30;97.10;;;;;;5009729;28;20121;-42
2020/12/30 06:20:32;;;;;;;30.98;20.40;;;3.30;97.10;;;;;;5008005;28;20406;-43
2020/12/30 06:23:01;;;;;;;28.70;20.02;;;3.30;97.10;;;;;;5009075;28;20053;-43
2020/12/30 06:25:28;;;;;;;27.27;18.75;;;3.30;97.10;;;;;;5008719;28;20052;-43
2020/12/30 06:27:54;;;;;;;25.73;17.42;;;3.30;97.10;;;;;;5008682;28;20030;-43
2020/12/30 06:30:21;;;;;;;25.08;17.15;;;3.30;97.10;;;;;;5008427;28;20029;-43
2020/12/30 06:32:46;;;;;;;27.13;17.90;;;3.30;97.20;;;;;;5009275;28;20550;-44
2020/12/30 06:35:12;;;;;;;26.67;18.50;;;3.30;97.20;;;;;;5008278;28;20121;-44
2020/12/30 06:37:39;;;;;;;23.42;15.95;;;3.40;97.20;;;;;;5008725;28;20393;-43
2020/12/30 06:40:18;;;;;;;27.17;16.92;;;3.40;97.20;;;;;;5009281;28;20022;-43
2020/12/30 06:42:55;;;;;;;23.42;16.13;;;3.50;97.20;;;;;;5008195;28;20401;-43
2020/12/30 06:45:42;;;;;;;23.15;16.40;;;3.50;97.20;;;;;;5008251;28;20059;-43
2020/12/30 06:48:12;;;;;;;20.77;14.80;;;3.50;97.20;;;;;;5008527;28;20048;-43
2020/12/30 06:50:39;;;;;;;21.20;15.00;;;3.50;97.10;;;;;;5008933;28;20442;-43
2020/12/30 06:53:28;;;;;;;24.48;17.55;;;3.50;97.10;;;;;;5008483;28;20022;-43
2020/12/30 06:55:55;;;;;;;24.38;17.08;;;3.60;97.10;;;;;;5008448;28;20535;-44
2020/12/30 06:58:45;;;;;;;25.55;16.98;;;3.60;97.10;;;;;;5008090;28;20034;-44
2020/12/30 07:01:21;;;;;;;23.70;17.10;;;3.60;97.10;;;;;;5008266;28;20038;-45
2020/12/30 07:03:48;;;;;;;28.15;20.50;;;3.60;97.10;;;;;;5008449;28;20037;-43
2020/12/30 07:06:36;;;;;;;27.70;20.40;;;3.60;97.10;;;;;;5007897;28;20041;-43
2020/12/30 07:09:05;;;;;;;28.98;20.48;;;3.50;97.10;;;;;;5008371;28;20033;-43
2020/12/30 07:11:53;;;;;;;28.42;20.83;;;3.50;97.10;;;;;;5007768;28;20048;-44
2020/12/30 07:14:27;;;;;;;28.80;20.48;;;3.50;97.20;;;;;;5008171;28;20026;-44
2020/12/30 07:16:58;;;;;;;29.85;20.85;;;3.60;97.20;;;;;;5008062;28;20029;-43
2020/12/30 07:19:31;;;;;;;31.98;21.45;;;3.50;97.20;;;;;;5007544;28;20026;-43
2020/12/30 07:22:13;;;;;;;35.00;23.00;;;3.60;97.30;;;;;;5008378;28;20065;-44
2020/12/30 07:24:49;;;;;;;33.63;23.73;;;3.50;97.40;;;;;;5007820;28;20026;-45
2020/12/30 07:27:16;;;;;;;34.38;23.83;;;3.50;97.50;;;;;;5007733;28;20018;-43
2020/12/30 07:29:43;;;;;;;33.17;22.13;;;3.50;97.40;;;;;;5008129;28;20373;-44
2020/12/30 07:32:10;;;;;;;30.48;21.77;;;3.40;97.50;;;;;;5007501;28;20029;-44
2020/12/30 07:34:46;;;;;;;33.78;22.90;;;3.40;97.60;;;;;;5007510;28;20576;-43
2020/12/30 07:37:13;;;;;;;32.38;22.52;;;3.50;97.60;;;;;;5007688;28;20135;-43
2020/12/30 07:39:43;;;;;;;29.92;20.60;;;3.50;97.60;;;;;;5007794;28;20053;-43
2020/12/30 07:42:14;;;;;;;29.13;21.30;;;3.60;97.60;;;;;;5007802;28;20370;-43
2020/12/30 07:44:46;;;;;;;30.95;21.77;;;3.60;97.60;;;;;;5007685;28;20092;-43
2020/12/30 07:47:12;;;;;;;33.30;22.05;;;3.70;97.60;;;;;;5007558;28;20021;-43
2020/12/30 07:49:38;;;;;;;32.50;21.48;;;3.70;97.60;;;;;;5007161;28;20029;-43
2020/12/30 07:52:04;;;;;;;31.02;20.35;;;3.70;97.50;;;;;;5007393;28;20076;-42
2020/12/30 07:54:31;;;;;;;31.55;21.38;;;3.80;97.50;;;;;;5007252;28;20034;-42
2020/12/30 07:57:11;;;;;;;31.20;21.27;;;3.80;97.60;;;;;;5007547;28;20026;-44
2020/12/30 07:59:38;;;;;;;26.45;19.60;;;3.90;97.60;;;;;;5006728;28;20492;-44
2020/12/30 08:02:05;;;;;;;26.85;19.05;;;3.90;97.50;;;;;;5007275;28;20026;-44
2020/12/30 08:04:41;;;;;;;28.10;19.27;;;3.90;97.50;;;;;;5006657;28;20041;-43
2020/12/30 08:07:07;;;;;;;28.25;18.85;;;3.90;97.50;;;;;;5007131;28;20061;-43
2020/12/30 08:09:36;;;;;;;25.55;18.27;;;3.90;97.40;;;;;;5006902;28;20382;-43
2020/12/30 08:12:22;;;;;;;28.17;17.85;;;4.00;97.40;;;;;;5007164;28;20029;-44
2020/12/30 08:14:48;;;;;;;21.83;15.77;;;4.00;97.40;;;;;;5007254;28;20124;-44
2020/12/30 08:17:14;;;;;;;23.33;16.92;;;4.00;97.40;;;;;;5006703;28;20105;-44
2020/12/30 08:19:48;;;;;;;31.25;21.40;;;4.00;97.40;;;;;;5007022;28;20132;-44
2020/12/30 08:22:25;;;;;;;26.85;19.38;;;4.00;97.40;;;;;;5006454;28;20038;-44
2020/12/30 08:24:52;;;;;;;25.05;18.35;;;4.00;97.50;;;;;;5006705;28;20025;-44
2020/12/30 08:27:25;;;;;;;25.13;18.05;;;4.00;97.50;;;;;;5006838;28;20117;-43
2020/12/30 08:29:51;;;;;;;28.27;19.10;;;4.10;97.50;;;;;;5006959;28;20030;-43
2020/12/30 08:32:35;;;;;;;27.45;18.10;;;4.10;97.50;;;;;;5006108;28;20468;-43
2020/12/30 08:35:05;;;;;;;24.92;16.30;;;4.10;97.50;;;;;;5006655;28;20034;-43
2020/12/30 08:37:38;;;;;;;23.92;17.67;;;4.10;97.40;;;;;;5006109;28;20688;-43
2020/12/30 08:40:03;;;;;;;26.92;19.00;;;4.20;97.50;;;;;;5006803;28;20084;-44
2020/12/30 08:42:53;;;;;;;25.33;18.63;;;4.20;97.50;;;;;;5005645;28;20545;-43
2020/12/30 08:45:48;;;;;;;23.10;17.55;;;4.20;97.40;;;;;;5006082;28;20519;-43
2020/12/30 08:48:15;;;;;;;25.50;18.65;;;4.20;97.40;;;;;;4984294;28;20140;-43
2020/12/30 08:50:42;;;;;;;26.05;18.98;;;4.20;97.40;;;;;;5006954;28;20030;-43
2020/12/30 08:53:08;;;;;;;27.40;18.58;;;4.30;97.50;;;;;;5006392;28;20025;-43
2020/12/30 08:55:34;;;;;;;26.58;19.60;;;4.30;97.40;;;;;;5005742;28;20117;-43
2020/12/30 08:58:00;;;;;;;29.52;19.77;;;4.30;97.50;;;;;;5006663;28;20025;-43
2020/12/30 09:00:32;;;;;;;26.45;20.20;;;4.30;97.50;;;;;;5006128;28;20026;-43
2020/12/30 09:03:11;;;;;;;29.48;21.90;;;4.40;97.50;;;;;;5006139;28;20062;-43
2020/12/30 09:05:37;;;;;;;30.50;21.88;;;4.40;97.60;;;;;;5006279;28;20474;-43
2020/12/30 09:08:18;;;;;;;30.38;22.15;;;4.40;97.50;;;;;;5006364;28;20041;-43
2020/12/30 09:10:45;;;;;;;32.88;22.95;;;4.50;97.50;;;;;;5005892;28;20157;-43
2020/12/30 09:13:22;;;;;;;29.55;21.65;;;4.50;97.50;;;;;;5006168;28;20072;-44
2020/12/30 09:15:57;;;;;;;31.10;21.13;;;4.50;97.50;;;;;;5006407;28;20026;-44
2020/12/30 09:18:24;;;;;;;32.63;23.75;;;4.50;97.50;;;;;;5005983;28;20793;-43
2020/12/30 09:20:51;;;;;;;33.50;23.60;;;4.50;97.60;;;;;;5000187;28;20073;-44
2020/12/30 09:23:20;;;;;;;29.25;22.00;;;4.60;97.70;;;;;;4997157;28;20053;-43
2020/12/30 09:25:46;;;;;;;33.38;21.95;;;4.60;97.60;;;;;;5006655;28;20022;-44
2020/12/30 09:28:20;;;;;;;31.13;22.98;;;4.70;97.60;;;;;;5006183;28;20022;-44
2020/12/30 09:30:48;;;;;;;32.42;22.98;;;4.70;97.50;;;;;;5002877;28;20022;-43
2020/12/30 09:33:21;;;;;;;30.17;21.33;;;4.80;97.50;;;;;;5004910;28;20033;-44
2020/12/30 09:35:47;;;;;;;28.15;20.27;;;4.80;97.50;;;;;;5007023;28;20026;-44
2020/12/30 09:38:18;;;;;;;30.10;21.67;;;4.80;97.40;;;;;;5008958;28;20030;-44
2020/12/30 09:40:45;;;;;;;30.15;22.20;;;4.80;97.40;;;;;;5009085;28;20083;-44
2020/12/30 09:43:18;;;;;;;29.25;19.98;;;4.90;97.40;;;;;;5008870;28;20053;-43
2020/12/30 09:45:45;;;;;;;31.23;22.50;;;4.90;97.40;;;;;;5005130;28;20019;-43
2020/12/30 09:48:20;;;;;;;28.60;20.85;;;4.90;97.40;;;;;;4997585;28;20031;-43
2020/12/30 09:50:48;;;;;;;31.83;23.50;;;4.90;97.40;;;;;;5003704;28;20030;-44
2020/12/30 09:53:14;;;;;;;30.52;21.80;;;4.90;97.40;;;;;;5008708;28;20038;-44
2020/12/30 09:55:47;;;;;;;28.92;20.15;;;5.00;97.40;;;;;;5008654;28;20401;-44
2020/12/30 09:58:13;;;;;;;;;;;5.00;97.40;;;;;;5008759;28;20034;-43
2020/12/30 10:00:39;;;;;;;27.48;20.33;;;5.10;97.40;;;;;;5008503;28;19952;-43
2020/12/30 10:03:04;;;;;;;28.73;18.50;;;5.10;97.40;;;;;;5008649;28;20053;-43
2020/12/30 10:05:30;;;;;;;27.73;19.08;;;5.20;97.30;;;;;;5007651;28;20026;-43
2020/12/30 10:07:55;;;;;;;23.48;17.95;;;5.20;97.30;;;;;;5009333;28;20164;-44
2020/12/30 10:10:21;;;;;;;24.67;18.45;;;5.20;97.30;;;;;;5007917;28;20362;-43
2020/12/30 10:12:47;;;;;;;30.10;20.70;;;5.20;97.30;;;;;;5008624;28;20029;-42
2020/12/30 10:15:13;;;;;;;26.50;20.50;;;5.30;97.30;;;;;;5007891;28;20030;-43
2020/12/30 10:17:40;;;;;;;25.67;18.95;;;5.30;97.20;;;;;;5008706;28;20116;-43
2020/12/30 10:20:09;;;;;;;25.02;19.25;;;5.30;97.20;;;;;;5008026;28;20659;-44
2020/12/30 10:22:37;;;;;;;30.45;22.13;;;5.30;97.20;;;;;;5009004;28;20033;-44
2020/12/30 10:25:04;;;;;;;25.98;19.65;;;5.30;97.20;;;;;;5008258;28;20137;-44
2020/12/30 10:27:29;;;;;;;27.88;21.15;;;5.40;97.20;;;;;;5007178;28;20026;-44
2020/12/30 10:29:55;;;;;;;28.25;21.33;;;5.40;97.20;;;;;;5008441;28;20037;-43
2020/12/30 10:32:20;;;;;;;27.55;20.25;;;5.40;97.10;;;;;;5008246;28;20072;-44
2020/12/30 10:34:46;;;;;;;29.20;21.17;;;5.40;97.10;;;;;;5007796;28;20033;-44
2020/12/30 10:37:11;;;;;;;27.55;19.92;;;5.40;97.10;;;;;;5008381;28;20382;-44
2020/12/30 10:39:37;;;;;;;30.23;20.88;;;5.40;97.10;;;;;;5007839;28;20063;-44
2020/12/30 10:42:04;;;;;;;24.77;18.70;;;5.40;97.20;;;;;;5007819;28;20091;-44
2020/12/30 10:44:31;;;;;;;22.17;17.08;;;5.40;97.20;;;;;;5007338;28;20675;-44
2020/12/30 10:46:56;;;;;;;26.67;19.77;;;5.50;97.20;;;;;;5007567;28;20026;-44
2020/12/30 10:49:23;;;;;;;27.00;18.67;;;5.50;97.20;;;;;;5007131;28;20036;-44
2020/12/30 10:51:50;;;;;;;28.48;19.45;;;5.40;97.20;;;;;;5008252;28;20040;-44
2020/12/30 10:54:17;;;;;;;26.13;20.05;;;5.40;97.20;;;;;;5006947;28;20038;-44
2020/12/30 10:56:49;;;;;;;27.08;20.27;;;5.40;97.20;;;;;;5008158;28;20030;-43
2020/12/30 10:59:16;;;;;;;30.52;21.95;;;5.50;97.20;;;;;;5008051;28;20104;-43
2020/12/30 11:01:42;;;;;;;34.95;22.83;;;5.50;97.20;;;;;;5007556;28;20021;-43
2020/12/30 11:04:08;;;;;;;24.98;19.45;;;5.40;97.20;;;;;;5008781;28;20037;-43
2020/12/30 11:06:33;;;;;;;25.33;18.88;;;5.50;97.20;;;;;;5007840;28;20381;-42
2020/12/30 11:08:59;;;;;;;26.48;19.42;;;5.50;97.30;;;;;;5001171;28;20038;-43
2020/12/30 11:11:24;;;;;;;27.58;19.85;;;5.50;97.30;;;;;;5003952;28;20625;-44
2020/12/30 11:13:50;;;;;;;22.85;18.45;;;5.50;97.30;;;;;;4996254;28;20049;-43
2020/12/30 11:16:15;;;;;;;29.35;22.05;;;5.60;97.30;;;;;;4992815;28;20049;-43
2020/12/30 11:18:41;;;;;;;27.10;19.92;;;5.60;97.20;;;;;;4995377;28;20482;-44
2020/12/30 11:21:06;;;;;;;27.98;20.45;;;5.70;97.30;;;;;;4997225;28;20536;-44
2020/12/30 11:23:32;;;;;;;26.35;19.73;;;5.80;97.20;;;;;;5007334;28;20041;-44
2020/12/30 11:25:57;;;;;;;25.15;18.13;;;5.90;97.20;;;;;;4989264;28;20097;-44
2020/12/30 11:28:23;;;;;;;23.85;17.95;;;6.00;97.10;;;;;;4988111;28;20030;-44
2020/12/30 11:30:48;;;;;;;24.33;18.10;;;6.00;97.00;;;;;;4988514;28;20084;-43
2020/12/30 11:33:14;;;;;;;26.13;19.35;;;6.00;96.90;;;;;;4988027;28;20057;-44
2020/12/30 11:35:39;;;;;;;23.60;18.00;;;6.00;96.80;;;;;;4988927;28;20030;-44
2020/12/30 11:38:06;;;;;;;25.48;17.25;;;6.00;96.80;;;;;;4988696;28;20041;-44
2020/12/30 11:40:31;;;;;;;24.08;17.83;;;6.00;96.90;;;;;;4987986;28;20033;-44
2020/12/30 11:42:57;;;;;;;24.85;18.27;;;6.00;96.90;;;;;;4989312;28;20046;-44
2020/12/30 11:45:23;;;;;;;24.95;19.02;;;6.00;96.90;;;;;;4987707;28;20105;-43
2020/12/30 11:47:49;;;;;;;22.23;17.67;;;6.10;96.90;;;;;;4988920;28;20489;-43
2020/12/30 11:50:17;;;;;;;23.33;17.42;;;6.10;96.90;;;;;;4988379;28;20113;-43
2020/12/30 11:52:43;;;;;;;23.80;16.98;;;6.10;96.90;;;;;;5002533;28;20033;-43
2020/12/30 11:55:09;;;;;;;21.38;15.82;;;6.10;96.90;;;;;;5008280;28;20025;-43
2020/12/30 11:57:35;;;;;;;21.67;16.48;;;6.20;96.90;;;;;;5007651;28;20033;-43
2020/12/30 12:00:06;;;;;;;20.85;15.57;;;6.20;96.80;;;;;;5007300;28;20381;-43
2020/12/30 12:02:32;;;;;;;19.95;16.08;;;6.20;96.80;;;;;;4998130;28;20075;-43
2020/12/30 12:04:59;;;;;;;18.42;14.52;;;6.30;96.70;;;;;;4997446;28;20021;-43
2020/12/30 12:07:24;;;;;;;18.83;14.30;;;6.30;96.70;;;;;;4998530;28;20034;-43
2020/12/30 12:09:50;;;;;;;20.23;14.82;;;6.30;96.80;;;;;;4990446;28;20029;-43
2020/12/30 12:12:15;;;;;;;16.88;13.35;;;6.40;96.80;;;;;;4987517;28;20085;-43
2020/12/30 12:14:41;;;;;;;18.80;14.30;;;6.40;96.70;;;;;;4988825;28;20026;-43
2020/12/30 12:17:06;;;;;;;18.85;13.25;;;6.50;96.70;;;;;;4988603;28;20386;-43
2020/12/30 12:19:32;;;;;;;17.95;13.73;;;6.50;96.60;;;;;;4987115;28;20117;-43
2020/12/30 12:21:57;;;;;;;17.27;12.93;;;6.50;96.60;;;;;;4998858;28;20026;-43
2020/12/30 12:24:23;;;;;;;14.32;11.45;;;6.50;96.70;;;;;;4996144;28;20109;-43
2020/12/30 12:26:49;;;;;;;18.15;11.77;;;6.50;96.60;;;;;;5004201;28;20033;-44
2020/12/30 12:29:33;;;;;;;15.23;11.55;;;6.50;96.60;;;;;;5006461;28;20022;-44
2020/12/30 12:32:06;;;;;;;14.82;10.95;;;6.50;96.60;;;;;;5000845;28;20045;-43
2020/12/30 12:34:33;;;;;;;13.60;10.50;;;6.50;96.50;;;;;;4994365;28;20026;-43
2020/12/30 12:37:05;;;;;;;13.38;9.48;;;6.60;96.60;;;;;;4990400;28;20030;-44
2020/12/30 12:39:31;;;;;;;16.75;11.75;;;6.60;96.60;;;;;;4987686;28;20022;-44
2020/12/30 12:41:56;;;;;;;13.88;11.05;;;6.60;96.60;;;;;;4986986;28;20030;-44